sensor_id;sensor_type;location;lat;lon;timestamp;P1;durP1;ratioP1;P2;durP2;ratioP2
2860;SDS011;1438;50.922;6.704;2023-01-30T00:00:23;18.50;;;12.00;;
2860;SDS011;1438;50.922;6.704;2023-01-30T00:02:49;21.10;;;12.20;;
2860;SDS011;1438;50.922;6.704;2023-01-30T00:05:15;21.17;;;11.97;;
2860;SDS011;1438;50.922;6.704;2023-01-30T00:07:41;24.77;;;13.73;;
2860;SDS011;1438;50.922;6.704;2023-01-30T00:10:07;23.20;;;12.40;;
2860;SDS011;1438;50.922;6.704;2023-01-30T00:12:33;16.38;;;10.32;;
2860;SDS011;1438;50.922;6.704;2023-01-30T00:14:59;23.70;;;14.03;;
2860;SDS011;1438;50.922;6.704;2023-01-30T00:17:25;26.57;;;14.23;;
2860;SDS011;1438;50.922;6.704;2023-01-30T00:19:51;15.23;;;9.10;;
2860;SDS011;1438;50.922;6.704;2023-01-30T00:22:17;22.10;;;14.00;;
2860;SDS011;1438;50.922;6.704;2023-01-30T00:24:43;17.80;;;11.63;;
2860;SDS011;1438;50.922;6.704;2023-01-30T00:27:09;23.20;;;14.47;;
2860;SDS011;1438;50.922;6.704;2023-01-30T00:29:35;27.02;;;16.48;;
2860;SDS011;1438;50.922;6.704;2023-01-30T00:32:01;22.75;;;10.63;;
2860;SDS011;1438;50.922;6.704;2023-01-30T00:34:27;22.23;;;12.70;;
2860;SDS011;1438;50.922;6.704;2023-01-30T00:36:53;26.98;;;15.95;;
2860;SDS011;1438;50.922;6.704;2023-01-30T00:39:19;27.57;;;14.63;;
2860;SDS011;1438;50.922;6.704;2023-01-30T00:41:45;27.23;;;14.47;;
2860;SDS011;1438;50.922;6.704;2023-01-30T00:44:29;24.55;;;15.00;;
2860;SDS011;1438;50.922;6.704;2023-01-30T00:47:14;25.75;;;16.55;;
2860;SDS011;1438;50.922;6.704;2023-01-30T00:49:40;26.40;;;13.80;;
2860;SDS011;1438;50.922;6.704;2023-01-30T00:52:06;28.40;;;14.63;;
2860;SDS011;1438;50.922;6.704;2023-01-30T00:54:32;22.15;;;14.93;;
2860;SDS011;1438;50.922;6.704;2023-01-30T00:56:58;30.00;;;16.50;;
2860;SDS011;1438;50.922;6.704;2023-01-30T00:59:25;20.67;;;11.75;;
2860;SDS011;1438;50.922;6.704;2023-01-30T01:01:51;22.33;;;12.77;;
2860;SDS011;1438;50.922;6.704;2023-01-30T01:04:17;22.75;;;14.85;;
2860;SDS011;1438;50.922;6.704;2023-01-30T01:06:43;24.92;;;14.52;;
2860;SDS011;1438;50.922;6.704;2023-01-30T01:09:09;24.77;;;13.30;;
2860;SDS011;1438;50.922;6.704;2023-01-30T01:11:35;25.63;;;15.20;;
2860;SDS011;1438;50.922;6.704;2023-01-30T01:14:02;24.20;;;14.10;;
2860;SDS011;1438;50.922;6.704;2023-01-30T01:16:29;24.88;;;13.98;;
2860;SDS011;1438;50.922;6.704;2023-01-30T01:18:56;23.35;;;14.20;;
2860;SDS011;1438;50.922;6.704;2023-01-30T01:21:22;24.38;;;15.10;;
2860;SDS011;1438;50.922;6.704;2023-01-30T01:23:48;25.63;;;14.90;;
2860;SDS011;1438;50.922;6.704;2023-01-30T01:26:15;26.67;;;14.57;;
2860;SDS011;1438;50.922;6.704;2023-01-30T01:28:41;26.25;;;16.65;;
2860;SDS011;1438;50.922;6.704;2023-01-30T01:31:08;26.27;;;16.15;;
2860;SDS011;1438;50.922;6.704;2023-01-30T01:33:34;24.58;;;16.10;;
2860;SDS011;1438;50.922;6.704;2023-01-30T01:36:00;24.45;;;13.73;;
2860;SDS011;1438;50.922;6.704;2023-01-30T01:38:27;22.33;;;13.07;;
2860;SDS011;1438;50.922;6.704;2023-01-30T01:40:53;28.05;;;15.98;;
2860;SDS011;1438;50.922;6.704;2023-01-30T01:43:31;23.40;;;13.75;;
2860;SDS011;1438;50.922;6.704;2023-01-30T01:46:08;26.05;;;14.98;;
2860;SDS011;1438;50.922;6.704;2023-01-30T01:48:44;31.67;;;15.45;;
2860;SDS011;1438;50.922;6.704;2023-01-30T01:51:14;23.40;;;13.40;;
2860;SDS011;1438;50.922;6.704;2023-01-30T01:53:44;20.77;;;12.73;;
2860;SDS011;1438;50.922;6.704;2023-01-30T01:56:12;24.52;;;13.77;;
2860;SDS011;1438;50.922;6.704;2023-01-30T01:58:46;24.73;;;12.05;;
2860;SDS011;1438;50.922;6.704;2023-01-30T02:01:15;22.42;;;13.55;;
2860;SDS011;1438;50.922;6.704;2023-01-30T02:03:43;21.23;;;13.20;;
2860;SDS011;1438;50.922;6.704;2023-01-30T02:06:10;27.02;;;14.95;;
2860;SDS011;1438;50.922;6.704;2023-01-30T02:08:37;23.77;;;14.27;;
2860;SDS011;1438;50.922;6.704;2023-01-30T02:13:49;31.33;;;15.93;;
2860;SDS011;1438;50.922;6.704;2023-01-30T02:16:15;24.83;;;13.43;;
2860;SDS011;1438;50.922;6.704;2023-01-30T02:18:41;20.92;;;11.57;;
2860;SDS011;1438;50.922;6.704;2023-01-30T02:29:22;26.13;;;14.40;;
2860;SDS011;1438;50.922;6.704;2023-01-30T02:32:13;21.67;;;13.60;;
2860;SDS011;1438;50.922;6.704;2023-01-30T02:34:54;25.40;;;15.00;;
2860;SDS011;1438;50.922;6.704;2023-01-30T02:42:31;29.90;;;15.27;;
2860;SDS011;1438;50.922;6.704;2023-01-30T02:45:33;23.75;;;15.80;;
2860;SDS011;1438;50.922;6.704;2023-01-30T02:47:52;24.85;;;16.27;;
2860;SDS011;1438;50.922;6.704;2023-01-30T02:50:38;26.30;;;14.07;;
2860;SDS011;1438;50.922;6.704;2023-01-30T02:53:05;25.33;;;15.40;;
2860;SDS011;1438;50.922;6.704;2023-01-30T02:55:31;23.88;;;15.13;;
2860;SDS011;1438;50.922;6.704;2023-01-30T02:57:57;35.78;;;18.10;;
2860;SDS011;1438;50.922;6.704;2023-01-30T03:03:16;26.98;;;14.63;;
2860;SDS011;1438;50.922;6.704;2023-01-30T03:08:17;29.45;;;16.10;;
2860;SDS011;1438;50.922;6.704;2023-01-30T03:13:24;24.33;;;14.25;;
2860;SDS011;1438;50.922;6.704;2023-01-30T03:18:27;29.52;;;16.52;;
2860;SDS011;1438;50.922;6.704;2023-01-30T03:20:53;17.42;;;10.18;;
2860;SDS011;1438;50.922;6.704;2023-01-30T03:23:19;25.35;;;15.18;;
2860;SDS011;1438;50.922;6.704;2023-01-30T03:25:45;27.85;;;15.55;;
2860;SDS011;1438;50.922;6.704;2023-01-30T03:28:13;26.83;;;15.25;;
2860;SDS011;1438;50.922;6.704;2023-01-30T03:30:39;31.15;;;15.98;;
2860;SDS011;1438;50.922;6.704;2023-01-30T03:33:05;24.35;;;12.80;;
2860;SDS011;1438;50.922;6.704;2023-01-30T03:35:31;28.83;;;16.88;;
2860;SDS011;1438;50.922;6.704;2023-01-30T03:37:57;26.80;;;14.23;;
2860;SDS011;1438;50.922;6.704;2023-01-30T03:40:23;25.60;;;15.23;;
2860;SDS011;1438;50.922;6.704;2023-01-30T03:42:49;22.80;;;15.68;;
2860;SDS011;1438;50.922;6.704;2023-01-30T03:45:15;21.40;;;13.40;;
2860;SDS011;1438;50.922;6.704;2023-01-30T03:47:41;22.55;;;14.00;;
2860;SDS011;1438;50.922;6.704;2023-01-30T03:50:07;26.25;;;14.55;;
2860;SDS011;1438;50.922;6.704;2023-01-30T03:52:34;19.20;;;12.70;;
2860;SDS011;1438;50.922;6.704;2023-01-30T03:55:00;23.52;;;11.88;;
2860;SDS011;1438;50.922;6.704;2023-01-30T03:57:27;20.52;;;11.48;;
2860;SDS011;1438;50.922;6.704;2023-01-30T03:59:52;18.23;;;11.50;;
2860;SDS011;1438;50.922;6.704;2023-01-30T04:02:18;18.95;;;12.48;;
2860;SDS011;1438;50.922;6.704;2023-01-30T04:04:47;14.40;;;8.63;;
2860;SDS011;1438;50.922;6.704;2023-01-30T04:07:13;25.20;;;11.20;;
2860;SDS011;1438;50.922;6.704;2023-01-30T04:09:39;18.07;;;10.93;;
2860;SDS011;1438;50.922;6.704;2023-01-30T04:12:05;18.60;;;12.10;;
2860;SDS011;1438;50.922;6.704;2023-01-30T04:14:31;20.08;;;11.00;;
2860;SDS011;1438;50.922;6.704;2023-01-30T04:16:58;14.75;;;10.05;;
2860;SDS011;1438;50.922;6.704;2023-01-30T04:19:24;20.40;;;12.37;;
2860;SDS011;1438;50.922;6.704;2023-01-30T04:21:50;16.20;;;10.68;;
2860;SDS011;1438;50.922;6.704;2023-01-30T04:24:16;24.00;;;13.00;;
2860;SDS011;1438;50.922;6.704;2023-01-30T04:26:42;22.75;;;11.90;;
2860;SDS011;1438;50.922;6.704;2023-01-30T04:29:08;17.65;;;9.30;;
2860;SDS011;1438;50.922;6.704;2023-01-30T04:31:34;22.60;;;14.10;;
2860;SDS011;1438;50.922;6.704;2023-01-30T04:34:00;13.00;;;9.00;;
2860;SDS011;1438;50.922;6.704;2023-01-30T04:36:26;20.20;;;11.50;;
2860;SDS011;1438;50.922;6.704;2023-01-30T04:38:53;20.73;;;11.52;;
2860;SDS011;1438;50.922;6.704;2023-01-30T04:41:21;20.58;;;14.10;;
2860;SDS011;1438;50.922;6.704;2023-01-30T04:43:47;22.20;;;13.07;;
2860;SDS011;1438;50.922;6.704;2023-01-30T04:46:13;21.90;;;12.90;;
2860;SDS011;1438;50.922;6.704;2023-01-30T04:48:39;18.38;;;9.75;;
2860;SDS011;1438;50.922;6.704;2023-01-30T04:51:05;20.80;;;12.67;;
2860;SDS011;1438;50.922;6.704;2023-01-30T04:53:31;23.30;;;14.80;;
2860;SDS011;1438;50.922;6.704;2023-01-30T04:55:57;23.35;;;15.32;;
2860;SDS011;1438;50.922;6.704;2023-01-30T04:58:23;25.10;;;14.50;;
2860;SDS011;1438;50.922;6.704;2023-01-30T05:00:49;21.88;;;14.32;;
2860;SDS011;1438;50.922;6.704;2023-01-30T05:03:15;20.73;;;13.57;;
2860;SDS011;1438;50.922;6.704;2023-01-30T05:05:41;18.00;;;11.70;;
2860;SDS011;1438;50.922;6.704;2023-01-30T05:08:07;27.90;;;14.98;;
2860;SDS011;1438;50.922;6.704;2023-01-30T05:10:33;22.58;;;14.13;;
2860;SDS011;1438;50.922;6.704;2023-01-30T05:13:03;24.23;;;15.50;;
2860;SDS011;1438;50.922;6.704;2023-01-30T05:15:30;23.65;;;13.63;;
2860;SDS011;1438;50.922;6.704;2023-01-30T05:17:56;25.27;;;15.68;;
2860;SDS011;1438;50.922;6.704;2023-01-30T05:20:22;25.90;;;16.10;;
2860;SDS011;1438;50.922;6.704;2023-01-30T05:22:48;22.52;;;13.88;;
2860;SDS011;1438;50.922;6.704;2023-01-30T05:25:14;24.00;;;10.90;;
2860;SDS011;1438;50.922;6.704;2023-01-30T05:27:40;27.73;;;13.73;;
2860;SDS011;1438;50.922;6.704;2023-01-30T05:30:06;21.38;;;14.80;;
2860;SDS011;1438;50.922;6.704;2023-01-30T05:32:32;25.95;;;15.00;;
2860;SDS011;1438;50.922;6.704;2023-01-30T05:34:58;21.87;;;14.87;;
2860;SDS011;1438;50.922;6.704;2023-01-30T05:37:24;21.93;;;13.73;;
2860;SDS011;1438;50.922;6.704;2023-01-30T05:39:51;24.60;;;12.82;;
2860;SDS011;1438;50.922;6.704;2023-01-30T05:42:16;22.10;;;13.53;;
2860;SDS011;1438;50.922;6.704;2023-01-30T05:44:42;24.43;;;16.50;;
2860;SDS011;1438;50.922;6.704;2023-01-30T05:47:08;21.70;;;12.88;;
2860;SDS011;1438;50.922;6.704;2023-01-30T05:49:35;26.88;;;15.13;;
2860;SDS011;1438;50.922;6.704;2023-01-30T05:52:01;21.73;;;10.93;;
2860;SDS011;1438;50.922;6.704;2023-01-30T05:54:27;20.27;;;14.63;;
2860;SDS011;1438;50.922;6.704;2023-01-30T05:56:52;21.30;;;13.60;;
2860;SDS011;1438;50.922;6.704;2023-01-30T05:59:18;25.07;;;14.33;;
2860;SDS011;1438;50.922;6.704;2023-01-30T06:01:45;23.80;;;14.43;;
2860;SDS011;1438;50.922;6.704;2023-01-30T06:04:11;19.30;;;13.27;;
2860;SDS011;1438;50.922;6.704;2023-01-30T06:06:37;21.02;;;14.05;;
2860;SDS011;1438;50.922;6.704;2023-01-30T06:09:03;20.10;;;11.90;;
2860;SDS011;1438;50.922;6.704;2023-01-30T06:11:29;20.20;;;11.80;;
2860;SDS011;1438;50.922;6.704;2023-01-30T06:13:55;21.55;;;12.77;;
2860;SDS011;1438;50.922;6.704;2023-01-30T06:16:20;24.33;;;12.00;;
2860;SDS011;1438;50.922;6.704;2023-01-30T06:18:46;17.80;;;11.77;;
2860;SDS011;1438;50.922;6.704;2023-01-30T06:21:13;19.75;;;12.35;;
2860;SDS011;1438;50.922;6.704;2023-01-30T06:23:39;20.10;;;11.38;;
2860;SDS011;1438;50.922;6.704;2023-01-30T06:26:05;17.00;;;10.30;;
2860;SDS011;1438;50.922;6.704;2023-01-30T06:28:31;19.05;;;9.27;;
2860;SDS011;1438;50.922;6.704;2023-01-30T06:30:57;18.27;;;9.25;;
2860;SDS011;1438;50.922;6.704;2023-01-30T06:33:23;13.27;;;9.50;;
2860;SDS011;1438;50.922;6.704;2023-01-30T06:35:50;15.90;;;11.10;;
2860;SDS011;1438;50.922;6.704;2023-01-30T06:38:16;16.33;;;9.40;;
2860;SDS011;1438;50.922;6.704;2023-01-30T06:40:46;16.60;;;10.30;;
2860;SDS011;1438;50.922;6.704;2023-01-30T06:43:12;17.13;;;10.50;;
2860;SDS011;1438;50.922;6.704;2023-01-30T06:45:38;14.20;;;10.60;;
2860;SDS011;1438;50.922;6.704;2023-01-30T06:48:05;13.50;;;9.82;;
2860;SDS011;1438;50.922;6.704;2023-01-30T06:50:31;13.55;;;9.52;;
2860;SDS011;1438;50.922;6.704;2023-01-30T06:52:59;14.50;;;10.82;;
2860;SDS011;1438;50.922;6.704;2023-01-30T06:55:25;16.50;;;11.52;;
2860;SDS011;1438;50.922;6.704;2023-01-30T06:58:08;17.33;;;11.35;;
2860;SDS011;1438;50.922;6.704;2023-01-30T07:00:35;14.38;;;9.93;;
2860;SDS011;1438;50.922;6.704;2023-01-30T07:03:03;17.50;;;9.48;;
2860;SDS011;1438;50.922;6.704;2023-01-30T07:05:29;16.38;;;10.68;;
2860;SDS011;1438;50.922;6.704;2023-01-30T07:07:55;11.57;;;9.07;;
2860;SDS011;1438;50.922;6.704;2023-01-30T07:10:22;17.15;;;11.85;;
2860;SDS011;1438;50.922;6.704;2023-01-30T07:12:50;20.15;;;10.68;;
2860;SDS011;1438;50.922;6.704;2023-01-30T07:15:16;18.10;;;12.70;;
2860;SDS011;1438;50.922;6.704;2023-01-30T07:17:42;16.50;;;11.35;;
2860;SDS011;1438;50.922;6.704;2023-01-30T07:20:08;16.02;;;10.77;;
2860;SDS011;1438;50.922;6.704;2023-01-30T07:22:35;20.73;;;12.27;;
2860;SDS011;1438;50.922;6.704;2023-01-30T07:25:01;13.20;;;9.10;;
2860;SDS011;1438;50.922;6.704;2023-01-30T07:27:27;14.45;;;10.85;;
2860;SDS011;1438;50.922;6.704;2023-01-30T07:29:53;17.23;;;10.95;;
2860;SDS011;1438;50.922;6.704;2023-01-30T07:32:19;17.30;;;10.07;;
2860;SDS011;1438;50.922;6.704;2023-01-30T07:34:45;19.88;;;11.23;;
2860;SDS011;1438;50.922;6.704;2023-01-30T07:37:11;15.68;;;11.88;;
2860;SDS011;1438;50.922;6.704;2023-01-30T07:39:38;17.55;;;11.73;;
2860;SDS011;1438;50.922;6.704;2023-01-30T07:42:04;17.92;;;10.25;;
2860;SDS011;1438;50.922;6.704;2023-01-30T07:44:30;12.32;;;9.13;;
2860;SDS011;1438;50.922;6.704;2023-01-30T07:46:57;19.70;;;11.50;;
2860;SDS011;1438;50.922;6.704;2023-01-30T07:49:24;14.20;;;8.95;;
2860;SDS011;1438;50.922;6.704;2023-01-30T07:51:50;15.93;;;11.13;;
2860;SDS011;1438;50.922;6.704;2023-01-30T07:54:17;15.65;;;11.23;;
2860;SDS011;1438;50.922;6.704;2023-01-30T07:56:43;17.52;;;10.93;;
2860;SDS011;1438;50.922;6.704;2023-01-30T07:59:09;10.43;;;8.73;;
2860;SDS011;1438;50.922;6.704;2023-01-30T08:01:36;16.42;;;11.80;;
2860;SDS011;1438;50.922;6.704;2023-01-30T08:04:02;19.10;;;12.15;;
2860;SDS011;1438;50.922;6.704;2023-01-30T08:06:28;16.25;;;10.38;;
2860;SDS011;1438;50.922;6.704;2023-01-30T08:08:54;15.68;;;10.55;;
2860;SDS011;1438;50.922;6.704;2023-01-30T08:11:20;18.00;;;10.75;;
2860;SDS011;1438;50.922;6.704;2023-01-30T08:13:46;14.32;;;10.82;;
2860;SDS011;1438;50.922;6.704;2023-01-30T08:16:12;14.55;;;9.77;;
2860;SDS011;1438;50.922;6.704;2023-01-30T08:18:38;16.13;;;11.55;;
2860;SDS011;1438;50.922;6.704;2023-01-30T08:21:05;16.43;;;11.30;;
2860;SDS011;1438;50.922;6.704;2023-01-30T08:23:31;16.60;;;11.70;;
2860;SDS011;1438;50.922;6.704;2023-01-30T08:25:58;16.05;;;11.73;;
2860;SDS011;1438;50.922;6.704;2023-01-30T08:28:25;19.15;;;12.45;;
2860;SDS011;1438;50.922;6.704;2023-01-30T08:30:51;18.35;;;12.13;;
2860;SDS011;1438;50.922;6.704;2023-01-30T08:33:18;20.15;;;12.45;;
2860;SDS011;1438;50.922;6.704;2023-01-30T08:35:44;23.70;;;13.00;;
2860;SDS011;1438;50.922;6.704;2023-01-30T08:38:10;18.20;;;12.30;;
2860;SDS011;1438;50.922;6.704;2023-01-30T08:40:36;21.65;;;13.15;;
2860;SDS011;1438;50.922;6.704;2023-01-30T08:43:02;22.23;;;11.83;;
2860;SDS011;1438;50.922;6.704;2023-01-30T08:45:29;18.38;;;10.65;;
2860;SDS011;1438;50.922;6.704;2023-01-30T08:47:58;19.17;;;12.57;;
2860;SDS011;1438;50.922;6.704;2023-01-30T08:50:24;21.65;;;10.15;;
2860;SDS011;1438;50.922;6.704;2023-01-30T08:52:50;15.55;;;9.13;;
2860;SDS011;1438;50.922;6.704;2023-01-30T08:55:16;18.20;;;9.65;;
2860;SDS011;1438;50.922;6.704;2023-01-30T08:57:42;13.18;;;8.23;;
2860;SDS011;1438;50.922;6.704;2023-01-30T09:00:09;14.25;;;7.35;;
2860;SDS011;1438;50.922;6.704;2023-01-30T09:02:35;16.17;;;7.63;;
2860;SDS011;1438;50.922;6.704;2023-01-30T09:05:01;9.60;;;4.87;;
2860;SDS011;1438;50.922;6.704;2023-01-30T09:07:27;18.58;;;6.38;;
2860;SDS011;1438;50.922;6.704;2023-01-30T09:09:53;12.10;;;5.50;;
2860;SDS011;1438;50.922;6.704;2023-01-30T09:12:19;12.73;;;4.40;;
2860;SDS011;1438;50.922;6.704;2023-01-30T09:14:45;14.15;;;3.65;;
2860;SDS011;1438;50.922;6.704;2023-01-30T09:17:12;15.17;;;5.20;;
2860;SDS011;1438;50.922;6.704;2023-01-30T09:19:38;9.10;;;4.15;;
2860;SDS011;1438;50.922;6.704;2023-01-30T09:22:04;16.00;;;4.20;;
2860;SDS011;1438;50.922;6.704;2023-01-30T09:24:31;12.52;;;4.18;;
2860;SDS011;1438;50.922;6.704;2023-01-30T09:26:57;7.10;;;3.53;;
2860;SDS011;1438;50.922;6.704;2023-01-30T09:29:27;13.82;;;4.22;;
2860;SDS011;1438;50.922;6.704;2023-01-30T09:31:54;9.60;;;4.15;;
2860;SDS011;1438;50.922;6.704;2023-01-30T09:34:20;9.18;;;3.40;;
2860;SDS011;1438;50.922;6.704;2023-01-30T09:36:51;8.52;;;3.20;;
2860;SDS011;1438;50.922;6.704;2023-01-30T09:39:17;7.70;;;3.72;;
2860;SDS011;1438;50.922;6.704;2023-01-30T09:56:48;8.15;;;3.20;;
2860;SDS011;1438;50.922;6.704;2023-01-30T09:59:18;8.85;;;3.30;;
2860;SDS011;1438;50.922;6.704;2023-01-30T10:02:05;7.07;;;2.70;;
2860;SDS011;1438;50.922;6.704;2023-01-30T10:04:39;7.78;;;2.80;;
2860;SDS011;1438;50.922;6.704;2023-01-30T10:09:37;13.80;;;4.10;;
2860;SDS011;1438;50.922;6.704;2023-01-30T10:20:26;8.38;;;3.40;;
2860;SDS011;1438;50.922;6.704;2023-01-30T10:30:46;7.32;;;2.65;;
2860;SDS011;1438;50.922;6.704;2023-01-30T10:33:19;8.02;;;3.30;;
2860;SDS011;1438;50.922;6.704;2023-01-30T10:35:48;11.98;;;3.38;;
2860;SDS011;1438;50.922;6.704;2023-01-30T10:38:20;7.78;;;2.15;;
2860;SDS011;1438;50.922;6.704;2023-01-30T10:40:57;13.52;;;3.80;;
2860;SDS011;1438;50.922;6.704;2023-01-30T10:43:34;19.92;;;4.28;;
2860;SDS011;1438;50.922;6.704;2023-01-30T10:59:20;12.33;;;2.20;;
2860;SDS011;1438;50.922;6.704;2023-01-30T11:04:25;9.35;;;2.67;;
2860;SDS011;1438;50.922;6.704;2023-01-30T11:06:55;5.75;;;1.65;;
2860;SDS011;1438;50.922;6.704;2023-01-30T11:09:21;7.90;;;2.33;;
2860;SDS011;1438;50.922;6.704;2023-01-30T11:11:49;7.22;;;1.88;;
2860;SDS011;1438;50.922;6.704;2023-01-30T11:14:16;12.40;;;3.28;;
2860;SDS011;1438;50.922;6.704;2023-01-30T11:16:47;12.70;;;2.75;;
2860;SDS011;1438;50.922;6.704;2023-01-30T11:19:14;15.48;;;5.13;;
2860;SDS011;1438;50.922;6.704;2023-01-30T11:21:40;9.30;;;3.17;;
2860;SDS011;1438;50.922;6.704;2023-01-30T11:24:15;8.45;;;2.72;;
2860;SDS011;1438;50.922;6.704;2023-01-30T11:26:42;10.13;;;3.38;;
2860;SDS011;1438;50.922;6.704;2023-01-30T11:29:30;6.25;;;2.78;;
2860;SDS011;1438;50.922;6.704;2023-01-30T11:31:55;10.40;;;3.15;;
2860;SDS011;1438;50.922;6.704;2023-01-30T11:34:22;8.02;;;2.28;;
2860;SDS011;1438;50.922;6.704;2023-01-30T11:36:49;9.23;;;3.13;;
2860;SDS011;1438;50.922;6.704;2023-01-30T11:44:34;7.63;;;2.47;;
2860;SDS011;1438;50.922;6.704;2023-01-30T11:47:00;7.57;;;2.33;;
2860;SDS011;1438;50.922;6.704;2023-01-30T11:49:29;9.88;;;2.45;;
2860;SDS011;1438;50.922;6.704;2023-01-30T11:51:57;16.38;;;3.20;;
2860;SDS011;1438;50.922;6.704;2023-01-30T11:56:54;12.43;;;2.70;;
2860;SDS011;1438;50.922;6.704;2023-01-30T12:04:44;5.85;;;1.30;;
2860;SDS011;1438;50.922;6.704;2023-01-30T12:07:18;7.93;;;2.00;;
2860;SDS011;1438;50.922;6.704;2023-01-30T12:09:45;8.35;;;2.40;;
2860;SDS011;1438;50.922;6.704;2023-01-30T12:14:50;15.07;;;3.28;;
2860;SDS011;1438;50.922;6.704;2023-01-30T12:17:19;7.45;;;1.73;;
2860;SDS011;1438;50.922;6.704;2023-01-30T12:22:25;10.70;;;2.63;;
2860;SDS011;1438;50.922;6.704;2023-01-30T12:24:57;8.18;;;2.30;;
2860;SDS011;1438;50.922;6.704;2023-01-30T12:27:27;10.35;;;2.72;;
2860;SDS011;1438;50.922;6.704;2023-01-30T12:30:05;12.95;;;2.63;;
2860;SDS011;1438;50.922;6.704;2023-01-30T12:32:40;15.15;;;2.92;;
2860;SDS011;1438;50.922;6.704;2023-01-30T12:35:13;9.23;;;2.40;;
2860;SDS011;1438;50.922;6.704;2023-01-30T12:40:28;13.00;;;2.60;;
2860;SDS011;1438;50.922;6.704;2023-01-30T12:45:47;6.95;;;1.30;;
2860;SDS011;1438;50.922;6.704;2023-01-30T12:53:36;7.88;;;3.22;;
2860;SDS011;1438;50.922;6.704;2023-01-30T13:03:42;9.13;;;2.17;;
2860;SDS011;1438;50.922;6.704;2023-01-30T13:06:30;12.90;;;2.97;;
2860;SDS011;1438;50.922;6.704;2023-01-30T13:11:53;15.30;;;2.92;;
2860;SDS011;1438;50.922;6.704;2023-01-30T13:14:29;7.90;;;1.67;;
2860;SDS011;1438;50.922;6.704;2023-01-30T13:17:02;8.48;;;2.45;;
2860;SDS011;1438;50.922;6.704;2023-01-30T13:19:47;10.40;;;2.10;;
2860;SDS011;1438;50.922;6.704;2023-01-30T13:22:19;8.98;;;2.53;;
2860;SDS011;1438;50.922;6.704;2023-01-30T13:27:20;13.20;;;3.75;;
2860;SDS011;1438;50.922;6.704;2023-01-30T13:29:47;18.60;;;3.75;;
2860;SDS011;1438;50.922;6.704;2023-01-30T13:32:16;7.47;;;2.05;;
2860;SDS011;1438;50.922;6.704;2023-01-30T13:34:45;9.93;;;3.08;;
2860;SDS011;1438;50.922;6.704;2023-01-30T13:37:14;6.22;;;2.30;;
2860;SDS011;1438;50.922;6.704;2023-01-30T13:40:01;6.50;;;2.10;;
2860;SDS011;1438;50.922;6.704;2023-01-30T13:42:32;9.38;;;2.25;;
2860;SDS011;1438;50.922;6.704;2023-01-30T13:45:02;14.18;;;2.45;;
2860;SDS011;1438;50.922;6.704;2023-01-30T13:52:44;7.45;;;2.20;;
2860;SDS011;1438;50.922;6.704;2023-01-30T14:00:29;10.80;;;2.60;;
2860;SDS011;1438;50.922;6.704;2023-01-30T14:03:21;9.65;;;2.20;;
2860;SDS011;1438;50.922;6.704;2023-01-30T14:08:24;3.25;;;1.27;;
2860;SDS011;1438;50.922;6.704;2023-01-30T14:10:50;6.32;;;2.15;;
2860;SDS011;1438;50.922;6.704;2023-01-30T14:13:16;13.60;;;2.60;;
2860;SDS011;1438;50.922;6.704;2023-01-30T14:15:59;16.15;;;3.00;;
2860;SDS011;1438;50.922;6.704;2023-01-30T14:18:27;16.63;;;3.15;;
2860;SDS011;1438;50.922;6.704;2023-01-30T14:21:15;9.77;;;2.65;;
2860;SDS011;1438;50.922;6.704;2023-01-30T14:23:41;15.68;;;2.88;;
2860;SDS011;1438;50.922;6.704;2023-01-30T14:29:05;17.83;;;2.72;;
2860;SDS011;1438;50.922;6.704;2023-01-30T14:31:45;13.40;;;3.00;;
2860;SDS011;1438;50.922;6.704;2023-01-30T14:36:56;8.85;;;2.38;;
2860;SDS011;1438;50.922;6.704;2023-01-30T14:39:38;9.03;;;3.13;;
2860;SDS011;1438;50.922;6.704;2023-01-30T14:42:10;5.57;;;1.73;;
2860;SDS011;1438;50.922;6.704;2023-01-30T14:47:20;19.13;;;2.85;;
2860;SDS011;1438;50.922;6.704;2023-01-30T14:49:47;10.57;;;2.28;;
2860;SDS011;1438;50.922;6.704;2023-01-30T14:52:22;16.80;;;3.47;;
2860;SDS011;1438;50.922;6.704;2023-01-30T14:54:49;22.35;;;4.05;;
2860;SDS011;1438;50.922;6.704;2023-01-30T14:57:16;13.23;;;2.63;;
2860;SDS011;1438;50.922;6.704;2023-01-30T15:04:40;8.88;;;2.25;;
2860;SDS011;1438;50.922;6.704;2023-01-30T15:07:22;8.13;;;3.08;;
2860;SDS011;1438;50.922;6.704;2023-01-30T15:10:12;16.52;;;3.75;;
2860;SDS011;1438;50.922;6.704;2023-01-30T15:12:42;9.52;;;2.45;;
2860;SDS011;1438;50.922;6.704;2023-01-30T15:20:16;9.05;;;2.90;;
2860;SDS011;1438;50.922;6.704;2023-01-30T15:23:03;16.13;;;2.60;;
2860;SDS011;1438;50.922;6.704;2023-01-30T15:33:42;16.60;;;3.38;;
2860;SDS011;1438;50.922;6.704;2023-01-30T15:36:18;18.48;;;3.65;;
2860;SDS011;1438;50.922;6.704;2023-01-30T15:38:45;13.65;;;4.10;;
2860;SDS011;1438;50.922;6.704;2023-01-30T15:41:11;11.60;;;3.00;;
2860;SDS011;1438;50.922;6.704;2023-01-30T15:46:09;10.17;;;2.70;;
2860;SDS011;1438;50.922;6.704;2023-01-30T15:48:40;12.88;;;3.22;;
2860;SDS011;1438;50.922;6.704;2023-01-30T15:51:10;24.80;;;4.80;;
2860;SDS011;1438;50.922;6.704;2023-01-30T15:53:43;18.05;;;3.53;;
2860;SDS011;1438;50.922;6.704;2023-01-30T15:56:12;15.05;;;2.92;;
2860;SDS011;1438;50.922;6.704;2023-01-30T15:58:41;14.85;;;3.15;;
2860;SDS011;1438;50.922;6.704;2023-01-30T16:01:08;16.65;;;2.72;;
2860;SDS011;1438;50.922;6.704;2023-01-30T16:03:37;12.93;;;3.47;;
2860;SDS011;1438;50.922;6.704;2023-01-30T16:06:05;12.20;;;3.83;;
2860;SDS011;1438;50.922;6.704;2023-01-30T16:08:33;11.65;;;3.03;;
2860;SDS011;1438;50.922;6.704;2023-01-30T16:10:59;17.50;;;3.60;;
2860;SDS011;1438;50.922;6.704;2023-01-30T16:13:26;15.95;;;3.10;;
2860;SDS011;1438;50.922;6.704;2023-01-30T16:15:54;11.68;;;5.72;;
2860;SDS011;1438;50.922;6.704;2023-01-30T16:18:30;18.60;;;4.45;;
2860;SDS011;1438;50.922;6.704;2023-01-30T16:20:57;23.45;;;4.82;;
2860;SDS011;1438;50.922;6.704;2023-01-30T16:23:28;16.48;;;5.25;;
2860;SDS011;1438;50.922;6.704;2023-01-30T16:25:55;13.18;;;3.30;;
2860;SDS011;1438;50.922;6.704;2023-01-30T16:28:21;14.40;;;3.60;;
2860;SDS011;1438;50.922;6.704;2023-01-30T16:30:55;23.23;;;10.30;;
2860;SDS011;1438;50.922;6.704;2023-01-30T16:33:21;21.60;;;7.07;;
2860;SDS011;1438;50.922;6.704;2023-01-30T16:35:47;17.30;;;6.83;;
2860;SDS011;1438;50.922;6.704;2023-01-30T16:38:27;19.73;;;6.07;;
2860;SDS011;1438;50.922;6.704;2023-01-30T16:40:55;30.80;;;5.88;;
2860;SDS011;1438;50.922;6.704;2023-01-30T16:43:23;15.57;;;5.97;;
2860;SDS011;1438;50.922;6.704;2023-01-30T16:50:42;25.83;;;7.50;;
2860;SDS011;1438;50.922;6.704;2023-01-30T16:53:15;16.10;;;5.45;;
2860;SDS011;1438;50.922;6.704;2023-01-30T16:55:55;23.65;;;4.45;;
2860;SDS011;1438;50.922;6.704;2023-01-30T16:58:22;10.73;;;3.25;;
2860;SDS011;1438;50.922;6.704;2023-01-30T17:00:51;13.02;;;3.55;;
2860;SDS011;1438;50.922;6.704;2023-01-30T17:03:24;16.75;;;3.55;;
2860;SDS011;1438;50.922;6.704;2023-01-30T17:05:53;11.35;;;2.60;;
2860;SDS011;1438;50.922;6.704;2023-01-30T17:10:56;9.55;;;2.75;;
2860;SDS011;1438;50.922;6.704;2023-01-30T17:13:38;12.10;;;2.75;;
2860;SDS011;1438;50.922;6.704;2023-01-30T17:18:53;16.20;;;4.40;;
2860;SDS011;1438;50.922;6.704;2023-01-30T17:21:20;14.88;;;6.50;;
2860;SDS011;1438;50.922;6.704;2023-01-30T17:23:54;18.27;;;3.92;;
2860;SDS011;1438;50.922;6.704;2023-01-30T17:26:20;15.80;;;3.78;;
2860;SDS011;1438;50.922;6.704;2023-01-30T17:28:47;17.75;;;3.10;;
2860;SDS011;1438;50.922;6.704;2023-01-30T17:31:14;14.07;;;3.28;;
2860;SDS011;1438;50.922;6.704;2023-01-30T17:33:40;13.90;;;4.10;;
2860;SDS011;1438;50.922;6.704;2023-01-30T17:36:16;22.65;;;4.43;;
2860;SDS011;1438;50.922;6.704;2023-01-30T17:38:44;12.00;;;3.17;;
2860;SDS011;1438;50.922;6.704;2023-01-30T17:41:16;15.70;;;3.55;;
2860;SDS011;1438;50.922;6.704;2023-01-30T17:43:43;12.77;;;3.40;;
2860;SDS011;1438;50.922;6.704;2023-01-30T17:46:10;14.07;;;3.35;;
2860;SDS011;1438;50.922;6.704;2023-01-30T17:48:36;18.67;;;4.90;;
2860;SDS011;1438;50.922;6.704;2023-01-30T17:51:02;11.43;;;3.63;;
2860;SDS011;1438;50.922;6.704;2023-01-30T17:53:28;18.23;;;4.10;;